Time;durP1;ratioP1;P1;durP2;ratioP2;P2;SDS_P1;SDS_P2;PMS_P1;PMS_P2;Temp;Humidity;BMP_temperature;BMP_pressure;BME280_temperature;BME280_humidity;BME280_pressure;Samples;Min_cycle;Max_cycle;Signal;HPM_P1;HPM_P2
2022/05/06 00:02:07;;;;;;;0.00;0.00;;;;;;;9.16;73.89;102437.75;10536843;28;20051;-76
2022/05/06 00:07:12;;;;;;;0.00;0.00;;;;;;;9.17;73.55;102439.53;10538256;28;20081;-76
2022/05/06 00:12:17;;;;;;;0.00;0.00;;;;;;;9.07;74.13;102446.63;10534654;28;20076;-76
2022/05/06 00:17:19;;;;;;;0.00;0.00;;;;;;;9.04;75.14;102452.50;10531220;28;20044;-77
2022/05/06 00:22:21;;;;;;;0.00;0.00;;;;;;;8.72;74.57;102439.53;10533780;28;20056;-76
2022/05/06 00:27:46;;;;;;;0.00;0.00;;;;;;;8.69;75.27;102438.47;10533317;28;20052;-76
2022/05/06 00:32:48;;;;;;;0.05;0.05;;;;;;;8.53;76.44;102452.13;10533881;28;20044;-76
2022/05/06 00:37:49;;;;;;;0.00;0.00;;;;;;;8.80;73.62;102446.81;10550227;28;20608;-76
2022/05/06 00:42:51;;;;;;;0.43;0.43;;;;;;;8.57;73.95;102452.38;10531161;28;20098;-76
2022/05/06 00:47:53;;;;;;;0.00;0.00;;;;;;;8.57;72.90;102449.81;10534977;28;20275;-76
2022/05/06 00:52:55;;;;;;;0.00;0.00;;;;;;;8.60;75.03;102443.09;10530223;28;20053;-76
2022/05/06 00:57:57;;;;;;;0.00;0.00;;;;;;;8.79;75.04;102445.94;10530403;28;20392;-77
2022/05/06 01:02:59;;;;;;;0.00;0.00;;;;;;;8.70;72.89;102440.25;10515885;28;20055;-77
2022/05/06 01:08:02;;;;;;;0.00;0.00;;;;;;;8.40;76.73;102442.75;10534189;28;20040;-76
2022/05/06 01:13:04;;;;;;;0.00;0.00;;;;;;;8.38;77.91;102442.66;10532886;28;20040;-80
2022/05/06 01:18:12;;;;;;;0.00;0.00;;;;;;;8.34;77.04;102445.84;10539076;28;20530;-81
2022/05/06 01:23:13;;;;;;;0.00;0.00;;;;;;;8.03;78.55;102453.38;10540218;28;20407;-80
2022/05/06 01:28:20;;;;;;;0.00;0.00;;;;;;;8.12;78.11;102453.94;10540964;28;20056;-80
2022/05/06 01:33:24;;;;;;;0.00;0.00;;;;;;;8.13;77.98;102448.00;10527800;28;20070;-80
2022/05/06 01:38:33;;;;;;;0.10;0.10;;;;;;;8.10;77.89;102456.41;10538303;28;20080;-80
2022/05/06 01:43:43;;;;;;;0.00;0.00;;;;;;;8.16;77.71;102458.44;10525115;28;20097;-80
2022/05/06 01:48:47;;;;;;;0.00;0.00;;;;;;;7.98;78.43;102465.03;10539142;28;20056;-80
2022/05/06 01:53:50;;;;;;;0.00;0.00;;;;;;;7.94;78.59;102467.41;10530966;28;20480;-81
2022/05/06 01:58:56;;;;;;;0.10;0.10;;;;;;;7.85;77.39;102473.66;10514177;28;20045;-80
2022/05/06 02:09:18;;;;;;;0.00;0.00;;;;;;;7.69;77.98;102466.69;10527092;28;20139;-80
2022/05/06 02:14:35;;;;;;;0.00;0.00;;;;;;;7.70;77.24;102468.47;10522516;28;20051;-80
2022/05/06 02:19:58;;;;;;;0.00;0.00;;;;;;;7.59;77.70;102463.53;10535027;28;20123;-78
2022/05/06 02:25:22;;;;;;;0.00;0.00;;;;;;;7.45;78.54;102456.66;10527812;28;20083;-80
2022/05/06 02:36:00;;;;;;;0.00;0.00;;;;;;;7.53;76.94;102468.28;10528716;28;20054;-81
2022/05/06 02:41:06;;;;;;;0.00;0.00;;;;;;;7.26;76.91;102464.84;10524383;28;20105;-80
2022/05/06 02:46:16;;;;;;;0.00;0.00;;;;;;;7.39;75.54;102456.25;10521932;28;20048;-80
2022/05/06 02:51:20;;;;;;;0.00;0.00;;;;;;;7.51;74.83;102457.03;10536639;28;20048;-81
2022/05/06 02:56:24;;;;;;;0.00;0.00;;;;;;;7.33;78.37;102461.00;10523337;28;20078;-81
2022/05/06 03:01:31;;;;;;;0.00;0.00;;;;;;;7.14;77.32;102457.22;10535820;28;20060;-81
2022/05/06 03:06:38;;;;;;;0.00;0.00;;;;;;;7.46;78.52;102458.44;10526049;28;20056;-81
2022/05/06 03:11:40;;;;;;;0.00;0.00;;;;;;;7.40;78.73;102458.03;10535849;28;20139;-80
2022/05/06 03:16:51;;;;;;;0.00;0.00;;;;;;;7.15;78.90;102452.19;10535714;28;20048;-81
2022/05/06 03:21:54;;;;;;;0.00;0.00;;;;;;;7.01;80.11;102459.78;10535225;28;20045;-80
2022/05/06 03:26:56;;;;;;;0.00;0.00;;;;;;;7.29;78.52;102454.78;10535457;28;20048;-81
2022/05/06 03:31:57;;;;;;;0.00;0.00;;;;;;;7.25;78.42;102453.69;10534934;28;20507;-80
2022/05/06 03:37:04;;;;;;;0.00;0.00;;;;;;;7.19;80.28;102458.41;10532691;28;20570;-79
2022/05/06 03:42:06;;;;;;;0.00;0.00;;;;;;;7.10;78.85;102457.84;10531206;28;20048;-79
2022/05/06 03:47:08;;;;;;;0.05;0.05;;;;;;;6.95;78.48;102462.81;10534559;28;20101;-79
2022/05/06 03:52:13;;;;;;;0.00;0.00;;;;;;;6.99;78.44;102463.13;10515904;28;20044;-79
2022/05/06 03:57:18;;;;;;;0.00;0.00;;;;;;;6.92;78.37;102463.53;10523769;28;20044;-81
2022/05/06 04:02:21;;;;;;;0.00;0.00;;;;;;;6.85;76.88;102466.47;10532091;28;20075;-82
2022/05/06 04:07:24;;;;;;;0.00;0.00;;;;;;;6.70;79.24;102471.47;10534166;28;20127;-81
2022/05/06 04:12:26;;;;;;;0.00;0.00;;;;;;;6.91;77.35;102471.13;10532394;28;20593;-81
2022/05/06 04:17:36;;;;;;;0.00;0.00;;;;;;;7.34;78.15;102467.88;10523926;28;20594;-81
2022/05/06 04:28:16;;;;;;;0.90;0.90;;;;;;;7.10;78.08;102475.78;10501560;28;20499;-77
2022/05/06 04:33:24;;;;;;;0.00;0.00;;;;;;;7.08;80.85;102469.66;10534915;28;20051;-76
2022/05/06 04:38:27;;;;;;;0.15;0.15;;;;;;;6.97;81.28;102477.50;10512706;28;20052;-76
2022/05/06 04:43:33;;;;;;;0.00;0.00;;;;;;;7.26;80.91;102483.66;10531845;28;20052;-76
2022/05/06 04:48:36;;;;;;;0.00;0.00;;;;;;;7.70;81.73;102479.59;10532382;28;20086;-76
2022/05/06 04:53:44;;;;;;;0.00;0.00;;;;;;;8.02;80.13;102487.53;10535227;28;20054;-76
2022/05/06 04:58:46;;;;;;;0.00;0.00;;;;;;;8.16;79.56;102491.81;10542739;28;20048;-77
2022/05/06 05:03:59;;;;;;;0.10;0.10;;;;;;;8.49;78.79;102492.16;10527177;28;20410;-77
2022/05/06 05:09:08;;;;;;;0.00;0.00;;;;;;;8.44;78.50;102498.66;10506995;28;20133;-81
2022/05/06 05:14:13;;;;;;;0.00;0.00;;;;;;;8.72;78.99;102495.19;10519452;28;20768;-80
2022/05/06 05:19:16;;;;;;;0.00;0.00;;;;;;;8.59;78.81;102497.84;10536561;28;20127;-80
2022/05/06 05:24:25;;;;;;;0.00;0.00;;;;;;;8.75;78.58;102500.50;10539195;28;20058;-79
2022/05/06 05:29:28;;;;;;;0.00;0.00;;;;;;;9.08;78.67;102503.28;10517080;28;20446;-80
2022/05/06 05:34:31;;;;;;;0.35;0.32;;;;;;;9.32;79.08;102511.50;10525979;28;20085;-80
2022/05/06 05:39:33;;;;;;;0.00;0.00;;;;;;;9.45;78.50;102513.09;10535040;28;20047;-80
2022/05/06 05:50:01;;;;;;;0.10;0.10;;;;;;;9.49;80.22;102515.03;10535388;28;20048;-80
2022/05/06 05:55:04;;;;;;;0.00;0.00;;;;;;;9.79;80.31;102521.81;10534212;28;20048;-80
2022/05/06 06:00:07;;;;;;;0.00;0.00;;;;;;;10.30;77.84;102512.53;10535678;28;20044;-80
2022/05/06 06:05:13;;;;;;;0.00;0.00;;;;;;;10.81;76.99;102504.00;10535390;28;20122;-81
2022/05/06 06:10:17;;;;;;;0.00;0.00;;;;;;;10.83;76.95;102510.13;10521579;28;20075;-80
2022/05/06 06:15:20;;;;;;;0.00;0.00;;;;;;;11.22;75.62;102499.13;10530380;28;20048;-81
2022/05/06 06:20:23;;;;;;;0.00;0.00;;;;;;;11.32;75.95;102510.81;10520849;28;20052;-80
2022/05/06 06:25:26;;;;;;;0.00;0.00;;;;;;;11.64;75.87;102514.03;10538302;28;20078;-80
2022/05/06 06:30:30;;;;;;;0.00;0.00;;;;;;;11.54;76.74;102515.28;10528856;28;20044;-80
2022/05/06 06:35:36;;;;;;;0.10;0.10;;;;;;;11.42;76.42;102507.84;10527588;28;20082;-81
2022/05/06 06:40:38;;;;;;;0.00;0.00;;;;;;;11.75;75.05;102513.72;10527241;28;20044;-80
2022/05/06 06:45:40;;;;;;;0.10;0.10;;;;;;;11.87;74.78;102512.53;10527360;28;20330;-80
2022/05/06 06:51:06;;;;;;;0.00;0.00;;;;;;;12.82;72.48;102513.31;10535789;28;20493;-80
2022/05/06 06:56:17;;;;;;;0.00;0.00;;;;;;;13.22;71.38;102520.97;10520806;28;20144;-80
2022/05/06 07:01:18;;;;;;;0.00;0.00;;;;;;;13.27;71.46;102517.75;10533160;28;20056;-80
2022/05/06 07:11:53;;;;;;;0.00;0.00;;;;;;;13.56;71.10;102520.66;10506601;28;20048;-80
2022/05/06 07:16:55;;;;;;;0.77;0.52;;;;;;;14.74;68.24;102520.69;10517637;28;20071;-81
2022/05/06 07:21:57;;;;;;;0.00;0.00;;;;;;;14.52;67.69;102526.81;10522848;28;20040;-80
2022/05/06 07:26:58;;;;;;;0.55;0.35;;;;;;;15.12;65.19;102521.91;10526682;28;20048;-80
2022/05/06 07:32:00;;;;;;;0.00;0.00;;;;;;;15.42;67.09;102522.06;10526856;28;20506;-81
2022/05/06 07:37:02;;;;;;;0.00;0.00;;;;;;;16.06;64.66;102532.66;10502765;28;20118;-76
2022/05/06 07:42:04;;;;;;;0.00;0.00;;;;;;;16.27;63.73;102527.22;10525676;28;20048;-76
2022/05/06 07:47:06;;;;;;;0.00;0.00;;;;;;;16.75;62.61;102528.50;10501638;28;20444;-76
2022/05/06 07:52:08;;;;;;;0.00;0.00;;;;;;;17.20;60.68;102526.16;10545942;28;20515;-76
2022/05/06 07:57:10;;;;;;;0.00;0.00;;;;;;;17.54;60.43;102526.97;10535409;28;20048;-76
2022/05/06 08:07:32;;;;;;;0.00;0.00;;;;;;;17.72;57.97;102542.16;10524007;28;20083;-76
2022/05/06 08:12:34;;;;;;;1.02;0.75;;;;;;;17.95;56.92;102532.25;10534849;28;20114;-76
2022/05/06 08:18:01;;;;;;;0.00;0.00;;;;;;;18.45;56.92;102534.13;10531839;28;20044;-77
2022/05/06 08:23:03;;;;;;;0.00;0.00;;;;;;;18.28;56.51;102536.38;10529971;28;20128;-77
2022/05/06 08:28:04;;;;;;;0.40;0.40;;;;;;;18.36;57.11;102540.03;10529449;28;20075;-77
2022/05/06 08:33:06;;;;;;;0.35;0.35;;;;;;;17.95;57.08;102546.97;10537079;28;20048;-76
2022/05/06 08:38:08;;;;;;;0.00;0.00;;;;;;;18.21;55.69;102548.44;10532696;28;20429;-77
2022/05/06 08:43:10;;;;;;;1.25;0.90;;;;;;;19.10;55.78;102537.06;10532202;28;20117;-76
2022/05/06 08:53:39;;;;;;;0.00;0.00;;;;;;;19.24;53.22;102522.47;10515180;28;20113;-76
2022/05/06 08:58:41;;;;;;;0.60;0.25;;;;;;;19.90;52.72;102519.06;10500581;28;20470;-76
2022/05/06 09:03:44;;;;;;;0.10;0.10;;;;;;;19.76;53.66;102521.47;10497911;28;20407;-77
2022/05/06 09:08:48;;;;;;;0.00;0.00;;;;;;;20.12;51.09;102518.47;10513211;28;20048;-79
2022/05/06 09:13:49;;;;;;;0.10;0.10;;;;;;;20.49;50.44;102510.16;10537581;28;20047;-79
2022/05/06 09:18:51;;;;;;;0.00;0.00;;;;;;;20.53;48.85;102511.91;10520318;28;20117;-80
2022/05/06 09:23:55;;;;;;;0.00;0.00;;;;;;;20.54;50.35;102512.81;10496143;28;20056;-78
2022/05/06 09:28:59;;;;;;;0.22;0.22;;;;;;;20.15;50.53;102507.16;10474910;28;20508;-80
2022/05/06 09:34:09;;;;;;;0.00;0.00;;;;;;;20.54;47.20;102513.69;10526205;28;20060;-80
2022/05/06 09:39:11;;;;;;;0.55;0.55;;;;;;;19.97;49.90;102511.31;10528419;28;20079;-80
2022/05/06 09:44:12;;;;;;;0.10;0.10;;;;;;;20.70;48.67;102506.84;10533983;28;20048;-79
2022/05/06 09:49:16;;;;;;;0.00;0.00;;;;;;;21.17;49.07;102502.00;10497528;28;20040;-79
2022/05/06 09:54:41;;;;;;;0.00;0.00;;;;;;;21.44;46.97;102503.94;10514572;28;20062;-79
2022/05/06 09:59:43;;;;;;;0.00;0.00;;;;;;;21.72;46.92;102498.88;10501252;28;20573;-79
2022/05/06 10:04:45;;;;;;;0.17;0.17;;;;;;;20.60;48.88;102498.03;10498959;28;20061;-78
2022/05/06 10:10:02;;;;;;;0.75;0.45;;;;;;;20.00;50.10;102480.81;10513422;28;20090;-79
2022/05/06 10:15:08;;;;;;;0.00;0.00;;;;;;;20.05;49.85;102476.53;10536379;28;20503;-79
2022/05/06 10:20:10;;;;;;;0.20;0.20;;;;;;;21.41;48.58;102485.56;10512025;28;20052;-79
2022/05/06 10:25:41;;;;;;;0.63;0.63;;;;;;;22.12;44.58;102479.75;10539632;28;20056;-79
2022/05/06 10:36:03;;;;;;;0.00;0.00;;;;;;;20.23;47.69;102478.47;10499473;28;20106;-79
2022/05/06 10:41:11;;;;;;;0.00;0.00;;;;;;;20.48;48.65;102476.97;10528807;28;20059;-79
2022/05/06 10:46:33;;;;;;;0.00;0.00;;;;;;;21.26;45.19;102472.38;10522753;28;20155;-78
2022/05/06 10:51:35;;;;;;;0.00;0.00;;;;;;;22.25;45.23;102468.44;10527506;28;20560;-78
2022/05/06 10:56:44;;;;;;;0.08;0.08;;;;;;;21.52;45.71;102456.81;10535794;28;20059;-79
2022/05/06 11:01:46;;;;;;;0.25;0.25;;;;;;;22.08;45.37;102457.88;10497015;28;20101;-79
2022/05/06 11:06:47;;;;;;;0.45;0.45;;;;;;;21.45;47.10;102457.59;10522201;28;20127;-78
2022/05/06 11:11:49;;;;;;;0.00;0.00;;;;;;;21.63;46.38;102454.25;10499694;28;20454;-78
2022/05/06 11:16:51;;;;;;;1.27;0.63;;;;;;;21.83;47.99;102451.69;10495644;28;20048;-79
2022/05/06 11:22:08;;;;;;;0.00;0.00;;;;;;;23.01;44.58;102439.59;10506422;28;20056;-79
2022/05/06 11:27:18;;;;;;;0.00;0.00;;;;;;;22.17;42.25;102439.53;10537126;28;20299;-78
2022/05/06 11:32:20;;;;;;;0.00;0.00;;;;;;;23.09;42.29;102422.06;10520158;28;20045;-79
2022/05/06 11:37:27;;;;;;;0.55;0.30;;;;;;;22.92;42.74;102431.72;10525389;28;20403;-78
2022/05/06 11:42:28;;;;;;;0.00;0.00;;;;;;;22.58;40.06;102432.59;10527680;28;20054;-79
2022/05/06 11:47:30;;;;;;;0.00;0.00;;;;;;;23.14;39.53;102428.16;10518027;28;20091;-79
2022/05/06 11:52:33;;;;;;;0.00;0.00;;;;;;;22.35;41.38;102427.31;10516565;28;20056;-79
2022/05/06 11:57:37;;;;;;;0.30;0.30;;;;;;;23.46;39.72;102415.81;10493832;28;20488;-79
2022/05/06 12:02:48;;;;;;;0.00;0.00;;;;;;;23.77;39.72;102405.16;10504819;28;20045;-79
2022/05/06 12:07:50;;;;;;;0.00;0.00;;;;;;;23.04;39.64;102413.31;10514231;28;20052;-79
2022/05/06 12:12:56;;;;;;;0.00;0.00;;;;;;;23.12;40.34;102405.38;10514427;28;20056;-79
2022/05/06 12:18:09;;;;;;;0.00;0.00;;;;;;;23.48;39.83;102402.69;10492574;28;20048;-79
2022/05/06 12:23:11;;;;;;;0.00;0.00;;;;;;;23.05;39.47;102399.25;10523904;28;20573;-79
2022/05/06 12:28:20;;;;;;;0.00;0.00;;;;;;;22.12;42.39;102393.16;10535455;28;20048;-79
2022/05/06 12:33:35;;;;;;;0.00;0.00;;;;;;;21.57;42.79;102386.91;10532061;28;20052;-79
2022/05/06 12:38:39;;;;;;;0.00;0.00;;;;;;;23.12;39.56;102384.38;10504875;28;20057;-79
2022/05/06 12:43:41;;;;;;;0.00;0.00;;;;;;;22.64;39.27;102387.94;10533525;28;20090;-78
2022/05/06 12:54:02;;;;;;;0.00;0.00;;;;;;;22.84;40.37;102376.56;10506243;28;20060;-78
2022/05/06 12:59:04;;;;;;;0.05;0.05;;;;;;;21.86;42.56;102366.00;10534121;28;20643;-79
2022/05/06 13:04:06;;;;;;;0.38;0.38;;;;;;;22.18;40.86;102367.81;10527069;28;20568;-78
2022/05/06 13:09:08;;;;;;;0.00;0.00;;;;;;;22.55;39.83;102366.06;10533407;28;20052;-78
2022/05/06 13:14:13;;;;;;;1.02;0.98;;;;;;;21.11;42.68;102369.19;10499836;28;20076;-78
2022/05/06 13:19:15;;;;;;;0.00;0.00;;;;;;;21.61;42.64;102364.22;10532678;28;20070;-78
2022/05/06 13:24:18;;;;;;;0.00;0.00;;;;;;;22.72;41.79;102355.53;10523182;28;20076;-78
2022/05/06 13:29:19;;;;;;;0.00;0.00;;;;;;;22.90;40.62;102357.25;10501694;28;20105;-79
2022/05/06 13:34:21;;;;;;;0.63;0.45;;;;;;;22.92;39.29;102350.25;10542112;28;20052;-78
2022/05/06 13:39:22;;;;;;;0.00;0.00;;;;;;;22.33;39.08;102350.31;10523585;28;20457;-79
2022/05/06 13:44:24;;;;;;;0.00;0.00;;;;;;;21.82;39.81;102353.75;10529346;28;20107;-78
2022/05/06 13:49:25;;;;;;;0.00;0.00;;;;;;;22.26;41.09;102353.81;10498994;28;20511;-79
2022/05/06 13:54:27;;;;;;;0.52;0.45;;;;;;;21.86;40.88;102350.25;10512129;28;20098;-78
2022/05/06 13:59:29;;;;;;;0.10;0.08;;;;;;;21.28;41.50;102342.19;10515730;28;20055;-79
2022/05/06 14:04:30;;;;;;;0.00;0.00;;;;;;;23.51;38.75;102339.53;10513523;28;20565;-78
2022/05/06 14:09:52;;;;;;;0.00;0.00;;;;;;;21.68;41.17;102345.00;10518225;28;20083;-78
2022/05/06 14:14:53;;;;;;;0.00;0.00;;;;;;;21.37;42.13;102339.63;10505325;28;20415;-79
2022/05/06 14:19:57;;;;;;;0.00;0.00;;;;;;;21.33;40.71;102348.34;10515887;28;20044;-78
2022/05/06 14:24:59;;;;;;;0.00;0.00;;;;;;;21.54;42.32;102337.03;10515706;28;20499;-79
2022/05/06 14:30:02;;;;;;;0.00;0.00;;;;;;;22.39;39.78;102345.06;10531025;28;20443;-78
2022/05/06 14:35:25;;;;;;;0.45;0.35;;;;;;;21.84;41.13;102331.03;10500048;28;20063;-78
2022/05/06 14:40:28;;;;;;;0.00;0.00;;;;;;;21.83;39.97;102331.03;10521913;28;20560;-78
2022/05/06 14:45:30;;;;;;;0.00;0.00;;;;;;;22.64;38.87;102326.66;10535257;28;20052;-78
2022/05/06 14:50:32;;;;;;;0.00;0.00;;;;;;;22.91;39.68;102327.47;10534926;28;20095;-79
2022/05/06 14:55:34;;;;;;;0.45;0.45;;;;;;;22.87;38.32;102316.09;10535047;28;20565;-77
2022/05/06 15:00:36;;;;;;;2.63;0.80;;;;;;;23.29;37.18;102305.44;10525461;28;20102;-77
2022/05/06 15:05:37;;;;;;;0.00;0.00;;;;;;;22.70;39.29;102310.03;10531132;28;20048;-78
2022/05/06 15:10:39;;;;;;;0.00;0.00;;;;;;;22.64;37.50;102298.63;10536869;28;20044;-78
2022/05/06 15:15:40;;;;;;;0.00;0.00;;;;;;;23.83;36.14;102298.97;10523922;28;20117;-77
2022/05/06 15:20:42;;;;;;;0.00;0.00;;;;;;;23.51;38.24;102300.06;10534421;28;20048;-77
2022/05/06 15:25:46;;;;;;;0.00;0.00;;;;;;;23.15;37.21;102302.88;10537130;28;20138;-77
2022/05/06 15:30:49;;;;;;;0.00;0.00;;;;;;;23.60;36.54;102297.38;10536650;28;20114;-78
2022/05/06 15:35:51;;;;;;;0.10;0.10;;;;;;;23.41;36.07;102284.38;10534553;28;20055;-78
2022/05/06 15:40:55;;;;;;;0.00;0.00;;;;;;;23.21;36.28;102283.56;10516461;28;20071;-78
2022/05/06 15:45:58;;;;;;;0.43;0.30;;;;;;;23.07;39.83;102287.13;10533685;28;20040;-77
2022/05/06 15:50:59;;;;;;;0.00;0.00;;;;;;;22.97;36.56;102280.16;10533216;28;20464;-77
2022/05/06 15:56:01;;;;;;;0.00;0.00;;;;;;;22.71;38.01;102286.38;10523300;28;20049;-78
2022/05/06 16:01:03;;;;;;;0.17;0.17;;;;;;;22.85;37.45;102280.19;10509157;28;20384;-78
2022/05/06 16:06:05;;;;;;;0.00;0.00;;;;;;;23.22;37.68;102269.56;10511379;28;20581;-77
2022/05/06 16:11:13;;;;;;;0.00;0.00;;;;;;;23.14;37.88;102275.69;10530216;28;20051;-77
2022/05/06 16:16:15;;;;;;;0.00;0.00;;;;;;;22.87;37.68;102268.78;10531458;28;20093;-79
2022/05/06 16:21:17;;;;;;;0.00;0.00;;;;;;;22.68;39.77;102256.63;10532408;28;20048;-78
2022/05/06 16:26:19;;;;;;;0.00;0.00;;;;;;;22.70;39.42;102260.13;10531473;28;20067;-77
2022/05/06 16:31:24;;;;;;;0.00;0.00;;;;;;;22.77;41.63;102257.47;10525649;28;20097;-78
2022/05/06 16:41:46;;;;;;;0.00;0.00;;;;;;;22.15;41.44;102252.31;10543246;28;20043;-79
2022/05/06 16:46:48;;;;;;;0.00;0.00;;;;;;;22.13;42.03;102246.19;10533156;28;20052;-79
2022/05/06 16:51:49;;;;;;;0.10;0.10;;;;;;;22.17;41.87;102240.06;10531059;28;20072;-79
2022/05/06 16:56:51;;;;;;;0.00;0.00;;;;;;;21.92;43.10;102244.47;10524913;28;20048;-79
2022/05/06 17:01:52;;;;;;;0.00;0.00;;;;;;;21.44;44.88;102251.38;10527016;28;20048;-79
2022/05/06 17:06:54;;;;;;;0.00;0.00;;;;;;;21.28;44.50;102250.47;10529698;28;20048;-78
2022/05/06 17:11:56;;;;;;;0.38;0.38;;;;;;;21.28;43.68;102258.31;10531562;28;20048;-78
2022/05/06 17:17:00;;;;;;;0.00;0.00;;;;;;;21.14;45.11;102251.31;10529538;28;20087;-78
2022/05/06 17:22:03;;;;;;;0.00;0.00;;;;;;;20.85;45.37;102246.81;10530226;28;20499;-78
2022/05/06 17:27:04;;;;;;;0.00;0.00;;;;;;;20.97;45.89;102258.22;10532724;28;20459;-78
2022/05/06 17:32:07;;;;;;;0.00;0.00;;;;;;;21.10;44.32;102257.41;10518746;28;20377;-78
2022/05/06 17:37:09;;;;;;;0.00;0.00;;;;;;;21.12;45.46;102260.03;10530175;28;20052;-78
2022/05/06 17:42:12;;;;;;;0.00;0.00;;;;;;;20.91;46.83;102257.31;10528488;28;20052;-78
2022/05/06 17:47:14;;;;;;;0.00;0.00;;;;;;;20.74;46.28;102256.34;10528571;28;20504;-78
2022/05/06 17:52:16;;;;;;;0.00;0.00;;;;;;;20.63;48.05;102260.66;10530620;28;20059;-78
2022/05/06 17:57:18;;;;;;;0.00;0.00;;;;;;;20.46;48.41;102253.56;10519602;28;20056;-78
2022/05/06 18:02:20;;;;;;;0.20;0.20;;;;;;;20.29;48.05;102259.56;10522129;28;20184;-79
2022/05/06 18:07:21;;;;;;;0.10;0.10;;;;;;;19.88;49.76;102260.13;10536175;28;20083;-79
2022/05/06 18:12:23;;;;;;;0.28;0.28;;;;;;;19.68;50.84;102256.41;10503725;28;20080;-79
2022/05/06 18:17:25;;;;;;;0.00;0.00;;;;;;;19.58;50.95;102261.56;10530797;28;20052;-79
2022/05/06 18:22:28;;;;;;;0.00;0.00;;;;;;;19.51;51.20;102259.75;10516892;28;20134;-78
2022/05/06 18:27:30;;;;;;;0.20;0.20;;;;;;;19.33;51.13;102260.41;10537853;28;20084;-79
2022/05/06 18:38:09;;;;;;;0.20;0.20;;;;;;;19.16;51.81;102262.84;10529532;28;20429;-79
2022/05/06 18:43:10;;;;;;;0.10;0.10;;;;;;;19.07;52.21;102263.59;10533809;28;20040;-79
2022/05/06 18:48:13;;;;;;;0.00;0.00;;;;;;;18.95;53.48;102274.75;10532393;28;20067;-78
2022/05/06 18:53:20;;;;;;;0.03;0.03;;;;;;;18.89;54.47;102271.16;10535495;28;20573;-78
2022/05/06 18:58:22;;;;;;;0.00;0.00;;;;;;;18.72;55.33;102274.44;10518992;28;20057;-78
2022/05/06 19:03:23;;;;;;;0.00;0.00;;;;;;;18.73;55.06;102284.00;10537202;28;20082;-77
2022/05/06 19:08:25;;;;;;;0.00;0.00;;;;;;;19.08;52.16;102275.78;10535565;28;20060;-77
2022/05/06 19:13:26;;;;;;;0.00;0.00;;;;;;;19.19;51.27;102283.75;10536501;28;20499;-78
2022/05/06 19:18:29;;;;;;;0.00;0.00;;;;;;;18.93;53.16;102280.81;10535886;28;20056;-78
2022/05/06 19:28:51;;;;;;;0.00;0.00;;;;;;;18.17;56.17;102290.13;10534342;28;20059;-78
2022/05/06 19:33:53;;;;;;;0.00;0.00;;;;;;;18.02;56.52;102290.75;10534794;28;20071;-79
2022/05/06 19:38:57;;;;;;;0.00;0.00;;;;;;;17.85;57.47;102298.22;10525081;28;20574;-78
2022/05/06 19:43:59;;;;;;;0.00;0.00;;;;;;;17.64;58.31;102294.38;10536039;28;20044;-78
2022/05/06 19:49:01;;;;;;;0.10;0.10;;;;;;;17.49;57.78;102287.16;10518625;28;20047;-78
2022/05/06 19:54:02;;;;;;;0.00;0.00;;;;;;;17.28;58.35;102298.03;10531450;28;20074;-78
2022/05/06 19:59:05;;;;;;;0.00;0.00;;;;;;;17.32;58.16;102297.22;10534704;28;20060;-78
2022/05/06 20:04:07;;;;;;;0.00;0.00;;;;;;;17.02;59.20;102295.75;10535687;28;20080;-77
2022/05/06 20:09:09;;;;;;;0.00;0.00;;;;;;;16.78;60.03;102306.47;10528062;28;20053;-77
2022/05/06 20:14:12;;;;;;;0.00;0.00;;;;;;;16.47;60.28;102303.16;10493962;28;20487;-77
2022/05/06 20:19:13;;;;;;;0.00;0.00;;;;;;;16.30;60.15;102302.75;10506987;28;20056;-77
2022/05/06 20:24:19;;;;;;;0.00;0.00;;;;;;;16.28;60.67;102309.63;10532418;28;20044;-77
2022/05/06 20:29:21;;;;;;;0.00;0.00;;;;;;;15.31;64.96;102310.47;10533848;28;20055;-79
2022/05/06 20:34:23;;;;;;;0.00;0.00;;;;;;;16.00;62.54;102314.13;10518706;28;20423;-79
2022/05/06 20:39:25;;;;;;;0.00;0.00;;;;;;;15.21;65.80;102315.44;10510456;28;20056;-79
2022/05/06 20:44:28;;;;;;;0.15;0.05;;;;;;;15.11;65.90;102308.19;10509508;28;20055;-79
2022/05/06 20:49:30;;;;;;;0.00;0.00;;;;;;;15.63;63.53;102302.72;10532029;28;20097;-79
2022/05/06 20:54:32;;;;;;;0.00;0.00;;;;;;;16.06;61.22;102316.88;10527556;28;20169;-79
2022/05/06 20:59:36;;;;;;;0.98;0.95;;;;;;;15.83;62.07;102311.97;10530976;28;20458;-79
2022/05/06 21:04:38;;;;;;;0.00;0.00;;;;;;;15.73;62.40;102303.84;10523268;28;20102;-79
2022/05/06 21:15:07;;;;;;;0.38;0.38;;;;;;;15.69;61.89;102315.88;10510746;28;20059;-79
2022/05/06 21:20:09;;;;;;;0.00;0.00;;;;;;;15.76;61.34;102304.81;10491924;28;20045;-79
2022/05/06 21:25:12;;;;;;;0.00;0.00;;;;;;;15.73;61.90;102315.16;10492366;28;20382;-79
2022/05/06 21:30:15;;;;;;;0.00;0.00;;;;;;;15.51;62.86;102311.97;10491449;28;20067;-79
2022/05/06 21:35:17;;;;;;;0.00;0.00;;;;;;;15.19;63.97;102304.13;10494403;28;20155;-79
2022/05/06 21:40:19;;;;;;;0.00;0.00;;;;;;;14.74;65.93;102307.94;10541411;28;20068;-79
2022/05/06 21:45:21;;;;;;;0.00;0.00;;;;;;;14.70;67.50;102307.84;10541938;28;20048;-79
2022/05/06 21:50:23;;;;;;;0.00;0.00;;;;;;;14.76;66.31;102308.03;10542044;28;20048;-78
2022/05/06 21:55:25;;;;;;;0.00;0.00;;;;;;;14.28;67.61;102302.16;10517659;28;20422;-79
2022/05/06 22:00:35;;;;;;;0.00;0.00;;;;;;;14.05;68.89;102303.97;10503352;28;20144;-79
2022/05/06 22:05:38;;;;;;;0.00;0.00;;;;;;;13.91;69.26;102306.09;10537386;28;20044;-79
2022/05/06 22:10:39;;;;;;;0.65;0.65;;;;;;;14.07;67.10;102311.81;10544828;28;20087;-79
2022/05/06 22:15:42;;;;;;;0.00;0.00;;;;;;;13.80;68.61;102297.94;10543447;28;20131;-79
2022/05/06 22:20:45;;;;;;;0.00;0.00;;;;;;;13.41;71.83;102297.41;10543927;28;20048;-79
2022/05/06 22:25:46;;;;;;;0.00;0.00;;;;;;;13.80;70.04;102291.91;10544292;28;20077;-79
2022/05/06 22:30:48;;;;;;;0.00;0.00;;;;;;;13.52;70.45;102293.47;10542005;28;20052;-79
2022/05/06 22:35:50;;;;;;;0.00;0.00;;;;;;;13.76;68.26;102290.91;10543893;28;20063;-79
2022/05/06 22:40:51;;;;;;;0.00;0.00;;;;;;;13.38;69.17;102293.00;10521347;28;20114;-79
2022/05/06 22:46:04;;;;;;;0.00;0.00;;;;;;;13.18;70.24;102289.63;10501581;28;20057;-79
2022/05/06 22:51:09;;;;;;;0.00;0.00;;;;;;;13.20;70.85;102281.91;10503972;28;20059;-79
2022/05/06 22:56:12;;;;;;;0.00;0.00;;;;;;;12.86;73.17;102281.53;10542840;28;20097;-80
2022/05/06 23:01:14;;;;;;;0.00;0.00;;;;;;;12.45;75.07;102285.97;10542227;28;20641;-79
2022/05/06 23:06:16;;;;;;;0.00;0.00;;;;;;;12.36;75.39;102289.94;10538507;28;20577;-79
2022/05/06 23:11:18;;;;;;;1.65;1.55;;;;;;;12.43;72.50;102285.91;10537249;28;20548;-79
2022/05/06 23:16:20;;;;;;;0.00;0.00;;;;;;;12.46;73.65;102274.81;10554028;28;20450;-79
2022/05/06 23:21:21;;;;;;;0.00;0.00;;;;;;;12.44;74.07;102274.72;10535544;28;20075;-79
2022/05/06 23:26:24;;;;;;;0.00;0.00;;;;;;;12.28;73.67;102277.53;10537037;28;20603;-79
2022/05/06 23:31:26;;;;;;;0.88;0.75;;;;;;;12.33;73.32;102284.63;10537220;28;20083;-79
2022/05/06 23:41:48;;;;;;;0.00;0.00;;;;;;;12.09;72.86;102273.31;10540515;28;20438;-79
2022/05/06 23:46:50;;;;;;;0.00;0.00;;;;;;;12.08;74.08;102275.00;10538681;28;20052;-79
2022/05/06 23:51:51;;;;;;;0.00;0.00;;;;;;;11.93;75.51;102285.53;10529710;28;20076;-79
2022/05/06 23:56:53;;;;;;;0.00;0.00;;;;;;;11.90;74.66;102277.66;10495194;28;20139;-78
